sensor_id;sensor_type;location;lat;lon;timestamp;pressure;altitude;pressure_sealevel;temperature;humidity
30110;BME280;14965;50.660;13.226;2022-07-11T00:00:14;95415.22;;;11.51;88.81
30110;BME280;14965;50.660;13.226;2022-07-11T00:02:41;95408.22;;;11.46;89.17
30110;BME280;14965;50.660;13.226;2022-07-11T00:05:08;95405.38;;;11.50;89.04
30110;BME280;14965;50.660;13.226;2022-07-11T00:07:34;95403.72;;;11.53;89.33
30110;BME280;14965;50.660;13.226;2022-07-11T00:10:01;95394.66;;;11.52;89.32
30110;BME280;14965;50.660;13.226;2022-07-11T00:12:26;95402.53;;;11.54;89.29
30110;BME280;14965;50.660;13.226;2022-07-11T00:14:53;95401.41;;;11.51;89.61
30110;BME280;14965;50.660;13.226;2022-07-11T00:17:19;95400.63;;;11.51;89.99
30110;BME280;14965;50.660;13.226;2022-07-11T00:19:46;95392.75;;;11.49;90.29
30110;BME280;14965;50.660;13.226;2022-07-11T00:22:12;95394.03;;;11.44;90.71
30110;BME280;14965;50.660;13.226;2022-07-11T00:24:38;95400.34;;;11.45;90.95
30110;BME280;14965;50.660;13.226;2022-07-11T00:27:05;95389.28;;;11.45;91.50
30110;BME280;14965;50.660;13.226;2022-07-11T00:29:31;95390.09;;;11.45;91.50
30110;BME280;14965;50.660;13.226;2022-07-11T00:31:58;95387.72;;;11.44;91.69
30110;BME280;14965;50.660;13.226;2022-07-11T00:34:25;95394.94;;;11.41;91.66
30110;BME280;14965;50.660;13.226;2022-07-11T00:36:52;95393.25;;;11.44;91.44
30110;BME280;14965;50.660;13.226;2022-07-11T00:39:18;95392.84;;;11.45;91.50
30110;BME280;14965;50.660;13.226;2022-07-11T00:41:44;95386.19;;;11.43;91.73
30110;BME280;14965;50.660;13.226;2022-07-11T00:44:11;95389.72;;;11.43;91.41
30110;BME280;14965;50.660;13.226;2022-07-11T00:46:37;95380.28;;;11.41;90.93
30110;BME280;14965;50.660;13.226;2022-07-11T00:49:03;95382.72;;;11.39;91.37
30110;BME280;14965;50.660;13.226;2022-07-11T00:51:30;95382.09;;;11.31;91.18
30110;BME280;14965;50.660;13.226;2022-07-11T00:53:59;95386.53;;;11.29;91.35
30110;BME280;14965;50.660;13.226;2022-07-11T00:56:29;95376.31;;;11.26;90.84
30110;BME280;14965;50.660;13.226;2022-07-11T00:58:57;95375.56;;;11.25;90.92
30110;BME280;14965;50.660;13.226;2022-07-11T01:01:23;95384.63;;;11.26;91.05
30110;BME280;14965;50.660;13.226;2022-07-11T01:03:50;95381.84;;;11.26;90.96
30110;BME280;14965;50.660;13.226;2022-07-11T01:06:15;95381.50;;;11.23;91.01
30110;BME280;14965;50.660;13.226;2022-07-11T01:08:43;95377.25;;;11.19;90.76
30110;BME280;14965;50.660;13.226;2022-07-11T01:11:12;95380.47;;;11.17;91.05
30110;BME280;14965;50.660;13.226;2022-07-11T01:13:38;95371.47;;;11.13;90.80
30110;BME280;14965;50.660;13.226;2022-07-11T01:16:12;95370.00;;;11.09;91.08
30110;BME280;14965;50.660;13.226;2022-07-11T01:18:40;95380.69;;;11.07;91.13
30110;BME280;14965;50.660;13.226;2022-07-11T01:21:17;95377.22;;;11.03;91.21
30110;BME280;14965;50.660;13.226;2022-07-11T01:23:45;95375.75;;;10.98;91.28
30110;BME280;14965;50.660;13.226;2022-07-11T01:26:12;95384.03;;;10.98;91.55
30110;BME280;14965;50.660;13.226;2022-07-11T01:28:38;95376.97;;;10.97;91.85
30110;BME280;14965;50.660;13.226;2022-07-11T01:31:04;95376.19;;;10.96;91.77
30110;BME280;14965;50.660;13.226;2022-07-11T01:33:31;95376.97;;;10.97;91.55
30110;BME280;14965;50.660;13.226;2022-07-11T01:35:57;95367.91;;;10.96;91.85
30110;BME280;14965;50.660;13.226;2022-07-11T01:38:23;95372.22;;;10.97;91.44
30110;BME280;14965;50.660;13.226;2022-07-11T01:40:50;95376.59;;;10.95;91.84
30110;BME280;14965;50.660;13.226;2022-07-11T01:43:16;95366.34;;;10.95;91.73
30110;BME280;14965;50.660;13.226;2022-07-11T01:45:42;95379.47;;;10.91;91.91
30110;BME280;14965;50.660;13.226;2022-07-11T01:48:08;95374.72;;;10.92;91.87
30110;BME280;14965;50.660;13.226;2022-07-11T01:50:34;95371.94;;;10.92;91.50
30110;BME280;14965;50.660;13.226;2022-07-11T01:52:59;95369.59;;;10.90;91.62
30110;BME280;14965;50.660;13.226;2022-07-11T01:55:25;95367.63;;;10.91;91.26
30110;BME280;14965;50.660;13.226;2022-07-11T01:57:52;95366.06;;;10.90;91.68
30110;BME280;14965;50.660;13.226;2022-07-11T02:00:18;95373.13;;;10.91;91.58
30110;BME280;14965;50.660;13.226;2022-07-11T02:02:44;95361.31;;;10.90;91.37
30110;BME280;14965;50.660;13.226;2022-07-11T02:05:10;95363.75;;;10.88;91.37
30110;BME280;14965;50.660;13.226;2022-07-11T02:07:36;95355.88;;;10.87;91.32
30110;BME280;14965;50.660;13.226;2022-07-11T02:10:02;95361.41;;;10.87;91.56
30110;BME280;14965;50.660;13.226;2022-07-11T02:12:28;95366.94;;;10.87;91.13
30110;BME280;14965;50.660;13.226;2022-07-11T02:14:55;95367.00;;;10.83;91.39
30110;BME280;14965;50.660;13.226;2022-07-11T02:17:21;95363.88;;;10.81;91.49
30110;BME280;14965;50.660;13.226;2022-07-11T02:19:47;95363.97;;;10.78;91.05
30110;BME280;14965;50.660;13.226;2022-07-11T02:22:13;95356.88;;;10.77;91.29
30110;BME280;14965;50.660;13.226;2022-07-11T02:24:39;95368.78;;;10.73;91.36
30110;BME280;14965;50.660;13.226;2022-07-11T02:27:05;95368.78;;;10.73;91.15
30110;BME280;14965;50.660;13.226;2022-07-11T02:29:31;95367.22;;;10.72;91.19
30110;BME280;14965;50.660;13.226;2022-07-11T02:31:58;95372.75;;;10.72;91.08
30110;BME280;14965;50.660;13.226;2022-07-11T02:34:24;95374.38;;;10.70;91.19
30110;BME280;14965;50.660;13.226;2022-07-11T02:36:49;95367.75;;;10.67;91.10
30110;BME280;14965;50.660;13.226;2022-07-11T02:39:15;95363.44;;;10.66;91.50
30110;BME280;14965;50.660;13.226;2022-07-11T02:41:42;95366.25;;;10.63;91.17
30110;BME280;14965;50.660;13.226;2022-07-11T02:44:08;95373.41;;;10.60;91.16
30110;BME280;14965;50.660;13.226;2022-07-11T02:46:34;95373.00;;;10.62;91.32
30110;BME280;14965;50.660;13.226;2022-07-11T02:49:01;95377.31;;;10.63;91.25
30110;BME280;14965;50.660;13.226;2022-07-11T02:51:27;95377.00;;;10.57;91.66
30110;BME280;14965;50.660;13.226;2022-07-11T02:53:53;95373.91;;;10.55;91.71
30110;BME280;14965;50.660;13.226;2022-07-11T02:56:19;95382.53;;;10.57;91.66
30110;BME280;14965;50.660;13.226;2022-07-11T02:58:45;95384.81;;;10.62;91.65
30110;BME280;14965;50.660;13.226;2022-07-11T03:01:11;95383.53;;;10.67;91.42
30110;BME280;14965;50.660;13.226;2022-07-11T03:03:37;95382.00;;;10.66;91.32
30110;BME280;14965;50.660;13.226;2022-07-11T03:06:04;95387.16;;;10.64;91.39
30110;BME280;14965;50.660;13.226;2022-07-11T03:08:31;95380.41;;;10.65;91.13
30110;BME280;14965;50.660;13.226;2022-07-11T03:10:56;95385.88;;;10.68;91.32
30110;BME280;14965;50.660;13.226;2022-07-11T03:13:22;95392.94;;;10.69;91.28
30110;BME280;14965;50.660;13.226;2022-07-11T03:15:53;95386.63;;;10.69;91.02
30110;BME280;14965;50.660;13.226;2022-07-11T03:18:19;95388.63;;;10.68;91.01
30110;BME280;14965;50.660;13.226;2022-07-11T03:20:45;95385.53;;;10.66;91.43
30110;BME280;14965;50.660;13.226;2022-07-11T03:23:12;95397.41;;;10.63;91.39
30110;BME280;14965;50.660;13.226;2022-07-11T03:25:38;95396.72;;;10.59;91.53
30110;BME280;14965;50.660;13.226;2022-07-11T03:28:04;95393.16;;;10.59;91.32
30110;BME280;14965;50.660;13.226;2022-07-11T03:30:29;95396.72;;;10.59;91.28
30110;BME280;14965;50.660;13.226;2022-07-11T03:32:55;95396.19;;;10.64;91.41
30110;BME280;14965;50.660;13.226;2022-07-11T03:35:22;95393.03;;;10.66;91.25
30110;BME280;14965;50.660;13.226;2022-07-11T03:37:48;95399.34;;;10.66;91.21
30110;BME280;14965;50.660;13.226;2022-07-11T03:40:15;95388.63;;;10.68;91.07
30110;BME280;14965;50.660;13.226;2022-07-11T03:42:41;95391.75;;;10.70;91.00
30110;BME280;14965;50.660;13.226;2022-07-11T03:45:08;95397.63;;;10.72;91.09
30110;BME280;14965;50.660;13.226;2022-07-11T03:47:33;95397.63;;;10.72;90.82
30110;BME280;14965;50.660;13.226;2022-07-11T03:50:00;95393.22;;;10.75;90.93
30110;BME280;14965;50.660;13.226;2022-07-11T03:52:26;95393.56;;;10.77;91.01
30110;BME280;14965;50.660;13.226;2022-07-11T03:54:51;95404.28;;;10.75;90.88
30110;BME280;14965;50.660;13.226;2022-07-11T03:57:18;95400.25;;;10.80;90.81
30110;BME280;14965;50.660;13.226;2022-07-11T03:59:44;95401.34;;;10.82;90.87
30110;BME280;14965;50.660;13.226;2022-07-11T04:02:10;95404.91;;;10.83;90.72
30110;BME280;14965;50.660;13.226;2022-07-11T04:04:36;95405.53;;;10.90;90.60
30110;BME280;14965;50.660;13.226;2022-07-11T04:07:02;95404.34;;;10.91;89.79
30110;BME280;14965;50.660;13.226;2022-07-11T04:09:29;95410.84;;;11.01;89.90
30110;BME280;14965;50.660;13.226;2022-07-11T04:11:54;95408.25;;;11.10;89.46
30110;BME280;14965;50.660;13.226;2022-07-11T04:14:22;95408.50;;;11.16;88.83
30110;BME280;14965;50.660;13.226;2022-07-11T04:16:47;95405.50;;;11.10;87.83
30110;BME280;14965;50.660;13.226;2022-07-11T04:19:13;95414.63;;;11.07;88.25
30110;BME280;14965;50.660;13.226;2022-07-11T04:21:39;95414.22;;;11.09;87.98
30110;BME280;14965;50.660;13.226;2022-07-11T04:24:05;95407.47;;;11.10;88.04
30110;BME280;14965;50.660;13.226;2022-07-11T04:26:31;95408.06;;;11.01;88.11
30110;BME280;14965;50.660;13.226;2022-07-11T04:28:57;95408.84;;;11.02;88.29
30110;BME280;14965;50.660;13.226;2022-07-11T04:31:25;95403.69;;;11.04;88.21
30110;BME280;14965;50.660;13.226;2022-07-11T04:33:51;95411.09;;;11.07;88.33
30110;BME280;14965;50.660;13.226;2022-07-11T04:36:17;95411.47;;;11.09;88.51
30110;BME280;14965;50.660;13.226;2022-07-11T04:38:43;95412.78;;;11.20;88.24
30110;BME280;14965;50.660;13.226;2022-07-11T04:41:08;95415.66;;;11.33;87.17
30110;BME280;14965;50.660;13.226;2022-07-11T04:43:34;95414.69;;;11.40;86.51
30110;BME280;14965;50.660;13.226;2022-07-11T04:46:01;95414.00;;;11.52;85.97
30110;BME280;14965;50.660;13.226;2022-07-11T04:48:28;95406.09;;;11.70;85.66
30110;BME280;14965;50.660;13.226;2022-07-11T04:50:54;95409.13;;;11.92;84.51
30110;BME280;14965;50.660;13.226;2022-07-11T04:53:20;95415.59;;;12.02;83.27
30110;BME280;14965;50.660;13.226;2022-07-11T04:55:46;95418.00;;;12.16;82.78
30110;BME280;14965;50.660;13.226;2022-07-11T04:58:11;95421.44;;;12.20;82.26
30110;BME280;14965;50.660;13.226;2022-07-11T05:00:37;95423.59;;;12.29;81.64
30110;BME280;14965;50.660;13.226;2022-07-11T05:03:03;95411.34;;;12.43;81.29
30110;BME280;14965;50.660;13.226;2022-07-11T05:05:30;95413.72;;;12.57;80.04
30110;BME280;14965;50.660;13.226;2022-07-11T05:07:56;95413.81;;;12.54;79.50
30110;BME280;14965;50.660;13.226;2022-07-11T05:10:22;95420.97;;;12.38;79.41
30110;BME280;14965;50.660;13.226;2022-07-11T05:12:48;95417.47;;;12.21;78.79
30110;BME280;14965;50.660;13.226;2022-07-11T05:15:13;95413.69;;;11.99;79.20
30110;BME280;14965;50.660;13.226;2022-07-11T05:17:40;95417.41;;;11.92;79.72
30110;BME280;14965;50.660;13.226;2022-07-11T05:20:07;95429.97;;;11.97;80.20
30110;BME280;14965;50.660;13.226;2022-07-11T05:22:35;95427.38;;;12.35;79.89
30110;BME280;14965;50.660;13.226;2022-07-11T05:25:00;95427.53;;;12.74;78.27
30110;BME280;14965;50.660;13.226;2022-07-11T05:27:26;95429.06;;;12.75;77.60
30110;BME280;14965;50.660;13.226;2022-07-11T05:29:52;95428.94;;;12.65;77.60
30110;BME280;14965;50.660;13.226;2022-07-11T05:32:18;95431.06;;;12.45;77.09
30110;BME280;14965;50.660;13.226;2022-07-11T05:34:44;95429.16;;;12.29;77.87
30110;BME280;14965;50.660;13.226;2022-07-11T05:37:09;95430.78;;;12.27;78.95
30110;BME280;14965;50.660;13.226;2022-07-11T05:39:37;95437.88;;;12.28;78.60
30110;BME280;14965;50.660;13.226;2022-07-11T05:42:04;95435.16;;;12.40;78.52
30110;BME280;14965;50.660;13.226;2022-07-11T05:44:30;95440.56;;;12.31;78.23
30110;BME280;14965;50.660;13.226;2022-07-11T05:46:59;95439.34;;;12.16;78.06
30110;BME280;14965;50.660;13.226;2022-07-11T05:49:25;95442.38;;;12.21;78.36
30110;BME280;14965;50.660;13.226;2022-07-11T05:51:50;95436.81;;;12.38;78.33
30110;BME280;14965;50.660;13.226;2022-07-11T05:54:16;95432.66;;;12.46;77.88
30110;BME280;14965;50.660;13.226;2022-07-11T05:56:43;95436.22;;;12.30;78.01
30110;BME280;14965;50.660;13.226;2022-07-11T05:59:09;95440.16;;;12.16;78.84
30110;BME280;14965;50.660;13.226;2022-07-11T06:01:35;95444.97;;;12.58;79.37
30110;BME280;14965;50.660;13.226;2022-07-11T06:04:01;95441.94;;;14.60;71.72
30110;BME280;14965;50.660;13.226;2022-07-11T06:06:27;95428.34;;;16.17;64.60
30110;BME280;14965;50.660;13.226;2022-07-11T06:08:53;95435.28;;;15.94;62.77
30110;BME280;14965;50.660;13.226;2022-07-11T06:11:19;95439.91;;;15.88;63.89
30110;BME280;14965;50.660;13.226;2022-07-11T06:13:47;95434.59;;;16.31;62.82
30110;BME280;14965;50.660;13.226;2022-07-11T06:16:12;95427.13;;;16.18;62.38
30110;BME280;14965;50.660;13.226;2022-07-11T06:18:39;95431.81;;;15.50;64.28
30110;BME280;14965;50.660;13.226;2022-07-11T06:21:05;95433.53;;;14.73;65.59
30110;BME280;14965;50.660;13.226;2022-07-11T06:23:32;95438.22;;;14.28;68.46
30110;BME280;14965;50.660;13.226;2022-07-11T06:25:58;95441.25;;;14.08;69.38
30110;BME280;14965;50.660;13.226;2022-07-11T06:28:24;95444.31;;;13.88;69.99
30110;BME280;14965;50.660;13.226;2022-07-11T06:30:51;95445.09;;;13.63;70.15
30110;BME280;14965;50.660;13.226;2022-07-11T06:33:17;95449.63;;;13.44;70.94
30110;BME280;14965;50.660;13.226;2022-07-11T06:35:44;95448.84;;;14.55;69.43
30110;BME280;14965;50.660;13.226;2022-07-11T06:38:10;95441.00;;;14.63;66.26
30110;BME280;14965;50.660;13.226;2022-07-11T06:40:36;95440.75;;;14.35;67.00
30110;BME280;14965;50.660;13.226;2022-07-11T06:43:02;95452.41;;;14.56;68.25
30110;BME280;14965;50.660;13.226;2022-07-11T06:45:28;95440.91;;;16.22;62.98
30110;BME280;14965;50.660;13.226;2022-07-11T06:47:55;95436.31;;;17.62;56.90
30110;BME280;14965;50.660;13.226;2022-07-11T06:50:20;95436.03;;;18.51;54.53
30110;BME280;14965;50.660;13.226;2022-07-11T06:52:46;95436.78;;;18.03;53.63
30110;BME280;14965;50.660;13.226;2022-07-11T06:55:12;95435.22;;;16.99;55.08
30110;BME280;14965;50.660;13.226;2022-07-11T06:57:38;95444.56;;;16.01;58.75
30110;BME280;14965;50.660;13.226;2022-07-11T07:00:06;95449.59;;;15.43;61.69
30110;BME280;14965;50.660;13.226;2022-07-11T07:02:33;95449.63;;;15.22;62.06
30110;BME280;14965;50.660;13.226;2022-07-11T07:05:01;95451.97;;;15.01;63.39
30110;BME280;14965;50.660;13.226;2022-07-11T07:07:28;95452.03;;;14.88;65.00
30110;BME280;14965;50.660;13.226;2022-07-11T07:09:54;95456.38;;;14.67;64.02
30110;BME280;14965;50.660;13.226;2022-07-11T07:12:20;95458.72;;;14.56;65.30
30110;BME280;14965;50.660;13.226;2022-07-11T07:14:46;95462.66;;;14.33;65.93
30110;BME280;14965;50.660;13.226;2022-07-11T07:17:12;95458.25;;;14.23;65.95
30110;BME280;14965;50.660;13.226;2022-07-11T07:19:38;95459.91;;;14.20;67.40
30110;BME280;14965;50.660;13.226;2022-07-11T07:22:05;95456.81;;;14.18;66.47
30110;BME280;14965;50.660;13.226;2022-07-11T07:24:32;95455.78;;;14.25;66.48
30110;BME280;14965;50.660;13.226;2022-07-11T07:26:58;95457.59;;;14.19;66.00
30110;BME280;14965;50.660;13.226;2022-07-11T07:29:24;95466.38;;;14.17;66.18
30110;BME280;14965;50.660;13.226;2022-07-11T07:31:50;95455.78;;;14.25;65.62
30110;BME280;14965;50.660;13.226;2022-07-11T07:34:16;95454.06;;;14.40;65.43
30110;BME280;14965;50.660;13.226;2022-07-11T07:36:42;95463.78;;;14.23;64.23
30110;BME280;14965;50.660;13.226;2022-07-11T07:39:09;95464.94;;;14.00;64.07
30110;BME280;14965;50.660;13.226;2022-07-11T07:41:35;95465.31;;;13.77;65.77
30110;BME280;14965;50.660;13.226;2022-07-11T07:44:01;95466.19;;;13.74;66.81
30110;BME280;14965;50.660;13.226;2022-07-11T07:46:28;95460.97;;;14.49;63.30
30110;BME280;14965;50.660;13.226;2022-07-11T07:48:54;95466.00;;;15.51;59.40
30110;BME280;14965;50.660;13.226;2022-07-11T07:51:20;95455.97;;;16.52;54.47
30110;BME280;14965;50.660;13.226;2022-07-11T07:53:46;95453.19;;;17.07;52.05
30110;BME280;14965;50.660;13.226;2022-07-11T07:56:13;95467.66;;;17.66;50.73
30110;BME280;14965;50.660;13.226;2022-07-11T07:58:39;95463.66;;;18.01;51.34
30110;BME280;14965;50.660;13.226;2022-07-11T08:01:05;95460.22;;;18.06;50.27
30110;BME280;14965;50.660;13.226;2022-07-11T08:03:31;95468.53;;;17.21;50.90
30110;BME280;14965;50.660;13.226;2022-07-11T08:05:57;95467.13;;;16.43;53.65
30110;BME280;14965;50.660;13.226;2022-07-11T08:08:23;95468.97;;;15.87;55.42
30110;BME280;14965;50.660;13.226;2022-07-11T08:10:49;95472.88;;;15.37;56.34
30110;BME280;14965;50.660;13.226;2022-07-11T08:13:16;95469.09;;;15.75;57.95
30110;BME280;14965;50.660;13.226;2022-07-11T08:15:42;95460.16;;;16.57;55.57
30110;BME280;14965;50.660;13.226;2022-07-11T08:18:08;95455.69;;;17.05;53.66
30110;BME280;14965;50.660;13.226;2022-07-11T08:20:34;95461.59;;;16.89;53.50
30110;BME280;14965;50.660;13.226;2022-07-11T08:23:00;95465.06;;;16.34;53.30
30110;BME280;14965;50.660;13.226;2022-07-11T08:25:26;95463.34;;;16.09;55.77
30110;BME280;14965;50.660;13.226;2022-07-11T08:27:52;95469.41;;;15.77;56.94
30110;BME280;14965;50.660;13.226;2022-07-11T08:30:19;95473.91;;;15.83;58.10
30110;BME280;14965;50.660;13.226;2022-07-11T08:32:45;95467.19;;;16.12;56.76
30110;BME280;14965;50.660;13.226;2022-07-11T08:35:11;95471.94;;;16.70;52.62
30110;BME280;14965;50.660;13.226;2022-07-11T08:37:37;95471.94;;;16.61;52.26
30110;BME280;14965;50.660;13.226;2022-07-11T08:40:04;95463.09;;;16.35;53.73
30110;BME280;14965;50.660;13.226;2022-07-11T08:42:30;95465.13;;;16.80;52.68
30110;BME280;14965;50.660;13.226;2022-07-11T08:44:56;95466.34;;;17.43;51.11
30110;BME280;14965;50.660;13.226;2022-07-11T08:47:24;95471.38;;;17.63;49.39
30110;BME280;14965;50.660;13.226;2022-07-11T08:49:51;95474.28;;;17.27;48.37
30110;BME280;14965;50.660;13.226;2022-07-11T08:52:18;95465.00;;;16.75;50.55
30110;BME280;14965;50.660;13.226;2022-07-11T08:54:45;95474.81;;;16.21;51.18
30110;BME280;14965;50.660;13.226;2022-07-11T08:57:12;95476.88;;;15.58;53.08
30110;BME280;14965;50.660;13.226;2022-07-11T08:59:40;95474.38;;;15.29;53.84
30110;BME280;14965;50.660;13.226;2022-07-11T09:02:09;95462.75;;;15.74;53.52
30110;BME280;14965;50.660;13.226;2022-07-11T09:04:36;95462.47;;;16.58;51.57
30110;BME280;14965;50.660;13.226;2022-07-11T09:07:02;95462.56;;;17.47;48.83
30110;BME280;14965;50.660;13.226;2022-07-11T09:09:29;95465.56;;;17.95;45.31
30110;BME280;14965;50.660;13.226;2022-07-11T09:11:57;95458.66;;;17.62;47.29
30110;BME280;14965;50.660;13.226;2022-07-11T09:14:26;95458.09;;;17.49;47.69
30110;BME280;14965;50.660;13.226;2022-07-11T09:16:54;95455.69;;;17.14;48.20
30110;BME280;14965;50.660;13.226;2022-07-11T09:19:21;95457.25;;;17.06;45.96
30110;BME280;14965;50.660;13.226;2022-07-11T09:21:58;95461.44;;;16.83;49.63
30110;BME280;14965;50.660;13.226;2022-07-11T09:24:24;95461.28;;;16.78;51.53
30110;BME280;14965;50.660;13.226;2022-07-11T09:26:51;95459.69;;;17.13;50.50
30110;BME280;14965;50.660;13.226;2022-07-11T09:29:20;95465.53;;;17.52;47.80
30110;BME280;14965;50.660;13.226;2022-07-11T09:31:47;95458.09;;;17.49;47.26
30110;BME280;14965;50.660;13.226;2022-07-11T09:34:17;95451.78;;;17.82;46.15
30110;BME280;14965;50.660;13.226;2022-07-11T09:36:45;95451.13;;;18.20;48.12
30110;BME280;14965;50.660;13.226;2022-07-11T09:39:15;95451.09;;;17.96;45.62
30110;BME280;14965;50.660;13.226;2022-07-11T09:41:42;95455.16;;;17.95;46.85
30110;BME280;14965;50.660;13.226;2022-07-11T09:44:12;95450.47;;;18.25;47.71
30110;BME280;14965;50.660;13.226;2022-07-11T09:46:38;95442.59;;;18.24;45.73
30110;BME280;14965;50.660;13.226;2022-07-11T09:49:05;95456.84;;;18.26;45.79
30110;BME280;14965;50.660;13.226;2022-07-11T09:51:32;95445.91;;;18.37;46.49
30110;BME280;14965;50.660;13.226;2022-07-11T09:53:59;95450.91;;;18.33;46.83
30110;BME280;14965;50.660;13.226;2022-07-11T09:56:32;95449.28;;;18.89;47.11
30110;BME280;14965;50.660;13.226;2022-07-11T09:59:00;95451.06;;;19.16;46.56
30110;BME280;14965;50.660;13.226;2022-07-11T10:01:27;95456.50;;;18.57;47.19
30110;BME280;14965;50.660;13.226;2022-07-11T10:03:53;95455.41;;;18.30;50.27
30110;BME280;14965;50.660;13.226;2022-07-11T10:06:19;95460.16;;;18.48;49.28
30110;BME280;14965;50.660;13.226;2022-07-11T10:08:45;95456.66;;;18.29;49.05
30110;BME280;14965;50.660;13.226;2022-07-11T10:11:11;95462.13;;;18.00;48.48
30110;BME280;14965;50.660;13.226;2022-07-11T10:13:39;95461.91;;;17.70;48.18
30110;BME280;14965;50.660;13.226;2022-07-11T10:16:39;95466.78;;;17.42;48.74
30110;BME280;14965;50.660;13.226;2022-07-11T10:19:18;95461.00;;;17.55;49.31
30110;BME280;14965;50.660;13.226;2022-07-11T10:22:02;95462.38;;;17.78;49.50
30110;BME280;14965;50.660;13.226;2022-07-11T10:24:43;95454.88;;;18.17;48.13
30110;BME280;14965;50.660;13.226;2022-07-11T10:27:21;95451.25;;;18.50;45.94
30110;BME280;14965;50.660;13.226;2022-07-11T10:29:53;95456.03;;;18.97;47.50
30110;BME280;14965;50.660;13.226;2022-07-11T10:32:19;95453.28;;;19.12;44.52
30110;BME280;14965;50.660;13.226;2022-07-11T10:34:45;95454.13;;;18.64;42.76
30110;BME280;14965;50.660;13.226;2022-07-11T10:37:11;95456.41;;;18.18;45.98
30110;BME280;14965;50.660;13.226;2022-07-11T10:39:39;95454.44;;;18.09;44.42
30110;BME280;14965;50.660;13.226;2022-07-11T10:42:21;95448.63;;;18.22;44.03
30110;BME280;14965;50.660;13.226;2022-07-11T10:44:49;95454.06;;;18.50;43.67
30110;BME280;14965;50.660;13.226;2022-07-11T10:47:39;95452.44;;;18.58;44.29
30110;BME280;14965;50.660;13.226;2022-07-11T10:50:23;95459.59;;;18.83;42.41
30110;BME280;14965;50.660;13.226;2022-07-11T10:52:56;95447.19;;;18.99;40.79
30110;BME280;14965;50.660;13.226;2022-07-11T10:55:34;95460.59;;;19.09;43.13
30110;BME280;14965;50.660;13.226;2022-07-11T10:58:08;95458.78;;;19.21;41.59
30110;BME280;14965;50.660;13.226;2022-07-11T11:00:36;95453.38;;;19.17;41.30
30110;BME280;14965;50.660;13.226;2022-07-11T11:03:06;95450.47;;;19.27;40.85
30110;BME280;14965;50.660;13.226;2022-07-11T11:05:44;95453.88;;;19.31;40.60
30110;BME280;14965;50.660;13.226;2022-07-11T11:08:42;95441.09;;;19.00;41.07
30110;BME280;14965;50.660;13.226;2022-07-11T11:11:36;95439.56;;;18.99;42.17
30110;BME280;14965;50.660;13.226;2022-07-11T11:14:25;95449.19;;;18.83;41.61
30110;BME280;14965;50.660;13.226;2022-07-11T11:16:51;95442.41;;;18.75;41.27
30110;BME280;14965;50.660;13.226;2022-07-11T11:19:51;95431.34;;;18.57;42.49
30110;BME280;14965;50.660;13.226;2022-07-11T11:22:19;95433.75;;;18.64;43.25
30110;BME280;14965;50.660;13.226;2022-07-11T11:24:46;95432.56;;;18.80;42.02
30110;BME280;14965;50.660;13.226;2022-07-11T11:27:17;95426.28;;;18.85;43.05
30110;BME280;14965;50.660;13.226;2022-07-11T11:29:44;95431.06;;;18.94;43.00
30110;BME280;14965;50.660;13.226;2022-07-11T11:32:10;95427.19;;;18.91;43.51
30110;BME280;14965;50.660;13.226;2022-07-11T11:34:36;95424.75;;;18.84;41.67
30110;BME280;14965;50.660;13.226;2022-07-11T11:37:03;95426.56;;;18.72;45.13
30110;BME280;14965;50.660;13.226;2022-07-11T11:39:32;95432.16;;;18.72;44.56
30110;BME280;14965;50.660;13.226;2022-07-11T11:42:08;95434.19;;;18.72;44.90
30110;BME280;14965;50.660;13.226;2022-07-11T11:44:46;95438.63;;;18.54;44.33
30110;BME280;14965;50.660;13.226;2022-07-11T11:47:12;95440.84;;;18.50;44.45
30110;BME280;14965;50.660;13.226;2022-07-11T11:49:43;95436.41;;;18.44;43.18
30110;BME280;14965;50.660;13.226;2022-07-11T11:52:11;95435.84;;;18.30;43.88
30110;BME280;14965;50.660;13.226;2022-07-11T11:54:37;95444.28;;;18.21;46.57
30110;BME280;14965;50.660;13.226;2022-07-11T11:57:06;95436.63;;;18.07;46.70
30110;BME280;14965;50.660;13.226;2022-07-11T11:59:33;95437.06;;;18.14;46.38
30110;BME280;14965;50.660;13.226;2022-07-11T12:01:59;95438.84;;;18.27;47.49
30110;BME280;14965;50.660;13.226;2022-07-11T12:04:31;95440.81;;;18.35;45.47
30110;BME280;14965;50.660;13.226;2022-07-11T12:06:57;95439.31;;;18.49;43.17
30110;BME280;14965;50.660;13.226;2022-07-11T12:09:24;95445.00;;;18.55;42.75
30110;BME280;14965;50.660;13.226;2022-07-11T12:11:50;95446.78;;;18.43;44.16
30110;BME280;14965;50.660;13.226;2022-07-11T12:14:16;95445.00;;;18.07;43.08
30110;BME280;14965;50.660;13.226;2022-07-11T12:16:45;95445.72;;;17.83;44.04
30110;BME280;14965;50.660;13.226;2022-07-11T12:19:13;95446.78;;;17.43;43.86
30110;BME280;14965;50.660;13.226;2022-07-11T12:21:43;95446.09;;;17.58;47.74
30110;BME280;14965;50.660;13.226;2022-07-11T12:24:14;95443.19;;;17.95;47.04
30110;BME280;14965;50.660;13.226;2022-07-11T12:26:44;95455.97;;;18.20;45.60
30110;BME280;14965;50.660;13.226;2022-07-11T12:29:11;95438.19;;;18.32;45.40
30110;BME280;14965;50.660;13.226;2022-07-11T12:31:46;95454.59;;;18.39;45.35
30110;BME280;14965;50.660;13.226;2022-07-11T12:34:14;95451.75;;;18.48;46.17
30110;BME280;14965;50.660;13.226;2022-07-11T12:36:40;95454.00;;;18.59;45.26
30110;BME280;14965;50.660;13.226;2022-07-11T12:39:06;95450.25;;;18.62;44.29
30110;BME280;14965;50.660;13.226;2022-07-11T12:41:33;95446.53;;;18.56;43.10
30110;BME280;14965;50.660;13.226;2022-07-11T12:44:00;95454.06;;;18.50;43.38
30110;BME280;14965;50.660;13.226;2022-07-11T12:46:29;95446.25;;;18.30;42.32
30110;BME280;14965;50.660;13.226;2022-07-11T12:48:55;95451.06;;;18.05;45.15
30110;BME280;14965;50.660;13.226;2022-07-11T12:51:28;95449.84;;;17.97;47.57